createdAt,value
2022-11-21T00:00:54.475Z,28.25
2022-11-21T00:03:21.748Z,29.15
2022-11-21T00:05:49.770Z,27.33
2022-11-21T00:08:21.552Z,27.33
2022-11-21T00:10:49.413Z,26.55
2022-11-21T00:13:20.574Z,26.83
2022-11-21T00:15:48.180Z,25.05
2022-11-21T00:18:15.689Z,27.77
2022-11-21T00:20:43.533Z,27.73
2022-11-21T00:23:11.246Z,26.02
2022-11-21T00:25:38.797Z,25.65
2022-11-21T00:28:06.189Z,25.13
2022-11-21T00:30:33.429Z,25.95
2022-11-21T00:33:00.366Z,26.42
2022-11-21T00:35:27.719Z,25.38
2022-11-21T00:37:54.578Z,25.40
2022-11-21T00:40:21.877Z,27.38
2022-11-21T00:42:48.653Z,28.65
2022-11-21T00:45:21.140Z,25.83
2022-11-21T00:47:50.714Z,23.00
2022-11-21T00:50:17.750Z,23.75
2022-11-21T00:52:44.551Z,24.85
2022-11-21T00:55:11.548Z,21.90
2022-11-21T00:57:38.411Z,22.92
2022-11-21T01:00:06.199Z,24.25
2022-11-21T01:02:33.173Z,22.77
2022-11-21T01:05:00.195Z,23.80
2022-11-21T01:07:27.008Z,22.65
2022-11-21T01:09:54.066Z,23.02
2022-11-21T01:12:20.802Z,21.92
2022-11-21T01:14:47.824Z,26.23
2022-11-21T01:17:14.582Z,22.48
2022-11-21T01:19:41.725Z,21.27
2022-11-21T01:22:08.891Z,23.45
2022-11-21T01:24:35.950Z,23.05
2022-11-21T01:27:02.713Z,23.65
2022-11-21T01:29:29.804Z,23.15
2022-11-21T01:31:56.573Z,21.77
2022-11-21T01:34:23.714Z,22.10
2022-11-21T01:36:50.639Z,21.50
2022-11-21T01:39:17.709Z,22.20
2022-11-21T01:41:46.081Z,20.77
2022-11-21T01:44:27.849Z,22.40
2022-11-21T01:46:54.875Z,21.20
2022-11-21T01:49:28.199Z,22.42
2022-11-21T01:52:13.178Z,24.25
2022-11-21T01:54:57.320Z,21.33
2022-11-21T01:57:35.434Z,19.38
2022-11-21T02:00:11.128Z,20.05
2022-11-21T02:02:42.491Z,20.65
2022-11-21T02:05:14.982Z,21.98
2022-11-21T02:07:46.014Z,20.40
2022-11-21T02:10:14.828Z,19.27
2022-11-21T02:12:49.350Z,19.95
2022-11-21T02:15:18.134Z,19.95
2022-11-21T02:17:45.100Z,18.95
2022-11-21T02:20:17.715Z,20.48
2022-11-21T02:22:53.651Z,19.35
2022-11-21T02:25:23.638Z,19.45
2022-11-21T02:27:54.960Z,18.52
2022-11-21T02:30:22.267Z,20.33
2022-11-21T02:32:49.169Z,18.15
2022-11-21T02:35:18.194Z,19.55
2022-11-21T02:37:48.420Z,19.20
2022-11-21T02:40:25.443Z,19.08
2022-11-21T02:43:00.405Z,20.77
2022-11-21T02:45:33.455Z,21.88
2022-11-21T02:48:03.906Z,19.80
2022-11-21T02:50:34.640Z,21.95
2022-11-21T02:53:02.092Z,20.02
2022-11-21T02:55:29.125Z,19.65
2022-11-21T02:57:59.065Z,20.60
2022-11-21T03:00:28.696Z,17.95
2022-11-21T03:02:56.087Z,18.27
2022-11-21T03:05:23.757Z,19.33
2022-11-21T03:07:50.562Z,19.80
2022-11-21T03:10:17.795Z,21.63
2022-11-21T03:12:44.595Z,19.20
2022-11-21T03:15:13.629Z,16.58
2022-11-21T03:17:41.867Z,20.23
2022-11-21T03:20:09.481Z,20.02
2022-11-21T03:22:36.309Z,21.05
2022-11-21T03:25:03.659Z,22.88
2022-11-21T03:27:30.366Z,23.50
2022-11-21T03:29:57.391Z,20.70
2022-11-21T03:32:24.180Z,22.67
2022-11-21T03:34:51.262Z,21.27
2022-11-21T03:37:18.049Z,20.88
2022-11-21T03:39:45.168Z,21.50
2022-11-21T03:42:11.876Z,21.48
2022-11-21T03:44:38.944Z,22.50
2022-11-21T03:47:05.694Z,21.05
2022-11-21T03:49:32.698Z,21.45
2022-11-21T03:51:59.433Z,19.63
2022-11-21T03:54:26.798Z,17.20
2022-11-21T03:56:54.042Z,16.88
2022-11-21T03:59:21.133Z,20.63
2022-11-21T04:01:47.908Z,20.35
2022-11-21T04:04:15.037Z,21.13
2022-11-21T04:06:41.766Z,19.88
2022-11-21T04:09:08.878Z,20.23
2022-11-21T04:11:35.615Z,20.73
2022-11-21T04:14:02.668Z,19.85
2022-11-21T04:16:29.439Z,18.52
2022-11-21T04:18:56.513Z,19.17
2022-11-21T04:21:23.289Z,15.77
2022-11-21T04:23:50.337Z,17.83
2022-11-21T04:26:17.085Z,18.58
2022-11-21T04:28:44.135Z,18.25
2022-11-21T04:31:11.550Z,17.70
2022-11-21T04:33:39.559Z,17.30
2022-11-21T04:36:09.248Z,17.80
2022-11-21T04:38:36.643Z,18.65
2022-11-21T04:41:03.692Z,17.17
2022-11-21T04:43:30.790Z,17.27
2022-11-21T04:45:57.548Z,19.90
2022-11-21T04:48:24.856Z,17.45
2022-11-21T04:50:51.660Z,16.67
2022-11-21T04:53:18.713Z,15.95
2022-11-21T04:55:45.429Z,16.05
2022-11-21T04:58:12.485Z,16.50
2022-11-21T05:00:39.238Z,17.52
2022-11-21T05:03:06.966Z,16.15
2022-11-21T05:05:34.029Z,16.85
2022-11-21T05:08:01.106Z,14.95
2022-11-21T05:10:28.123Z,16.35
2022-11-21T05:13:18.042Z,15.73
2022-11-21T05:15:44.878Z,15.40
2022-11-21T05:18:12.285Z,15.57
2022-11-21T05:20:39.156Z,16.30
2022-11-21T05:23:06.199Z,16.85
2022-11-21T05:25:32.991Z,15.07
2022-11-21T05:28:00.027Z,16.80
2022-11-21T05:30:26.841Z,16.80
2022-11-21T05:32:53.885Z,15.50
2022-11-21T05:35:20.623Z,15.23
2022-11-21T05:37:47.729Z,16.35
2022-11-21T05:40:14.541Z,16.33
2022-11-21T05:43:01.318Z,16.35
2022-11-21T05:45:28.135Z,14.90
2022-11-21T05:47:55.153Z,15.63
2022-11-21T05:50:21.979Z,15.73
2022-11-21T05:52:52.046Z,14.23
2022-11-21T05:55:18.811Z,15.55
2022-11-21T05:57:45.858Z,14.57
2022-11-21T06:00:13.233Z,15.73
2022-11-21T06:02:59.062Z,16.80
2022-11-21T06:05:25.818Z,16.20
2022-11-21T06:07:52.852Z,16.73
2022-11-21T06:10:19.583Z,15.70
2022-11-21T06:12:46.582Z,15.88
2022-11-21T06:15:13.346Z,15.73
2022-11-21T06:17:40.389Z,17.92
2022-11-21T06:20:07.841Z,16.98
2022-11-21T06:22:34.847Z,17.02
2022-11-21T06:25:01.626Z,17.20
2022-11-21T06:27:29.660Z,17.30
2022-11-21T06:29:56.444Z,16.90
2022-11-21T06:32:23.551Z,18.92
2022-11-21T06:34:50.314Z,18.38
2022-11-21T06:37:17.346Z,17.13
2022-11-21T06:39:44.058Z,17.17
2022-11-21T06:42:11.075Z,18.38
2022-11-21T06:44:37.846Z,17.38
2022-11-21T06:47:04.893Z,15.75
2022-11-21T06:49:31.680Z,18.65
2022-11-21T06:51:58.682Z,18.25
2022-11-21T06:54:25.428Z,17.63
2022-11-21T06:56:53.012Z,19.05
2022-11-21T06:59:19.769Z,18.88
2022-11-21T07:01:46.792Z,18.38
2022-11-21T07:04:13.537Z,16.88
2022-11-21T07:06:40.577Z,20.30
2022-11-21T07:09:32.367Z,18.75
2022-11-21T07:11:55.873Z,18.63
2022-11-21T07:14:22.587Z,19.65
2022-11-21T07:16:49.594Z,17.25
2022-11-21T07:19:16.359Z,18.85
2022-11-21T07:21:43.469Z,20.02
2022-11-21T07:24:10.349Z,17.70
2022-11-21T07:26:37.377Z,18.88
2022-11-21T07:29:04.175Z,18.33
2022-11-21T07:31:31.181Z,18.25
2022-11-21T07:33:59.051Z,18.38
2022-11-21T07:36:26.136Z,18.02
2022-11-21T07:38:52.902Z,18.30
2022-11-21T07:41:22.914Z,17.92
2022-11-21T07:43:49.693Z,19.50
2022-11-21T07:46:16.713Z,18.27
2022-11-21T07:48:43.459Z,17.55
2022-11-21T07:51:11.182Z,17.02
2022-11-21T07:53:38.016Z,20.05
2022-11-21T07:56:05.287Z,19.13
2022-11-21T07:58:32.017Z,21.73
2022-11-21T08:00:59.069Z,19.10
2022-11-21T08:03:25.785Z,20.48
2022-11-21T08:05:52.864Z,19.63
2022-11-21T08:08:19.604Z,21.50
2022-11-21T08:10:47.083Z,19.10
2022-11-21T08:13:14.299Z,21.02
2022-11-21T08:15:41.465Z,21.48
2022-11-21T08:18:13.497Z,21.25
2022-11-21T08:20:41.008Z,19.15
2022-11-21T08:23:08.094Z,19.65
2022-11-21T08:25:37.698Z,18.13
2022-11-21T08:28:05.774Z,19.00
2022-11-21T08:30:33.712Z,18.30
2022-11-21T08:33:01.017Z,22.58
2022-11-21T08:35:29.127Z,18.88
2022-11-21T08:38:00.093Z,18.15
2022-11-21T08:40:29.308Z,19.42
2022-11-21T08:42:59.949Z,20.55
2022-11-21T08:45:27.010Z,19.58
2022-11-21T08:47:54.630Z,22.10
2022-11-21T08:50:22.860Z,23.00
2022-11-21T08:52:49.815Z,20.38
2022-11-21T08:55:16.998Z,20.85
2022-11-21T08:57:43.751Z,20.30
2022-11-21T09:00:12.703Z,20.95
2022-11-21T09:02:39.503Z,21.95
2022-11-21T09:05:07.085Z,19.55
2022-11-21T09:07:33.864Z,20.25
2022-11-21T09:10:00.946Z,19.50
2022-11-21T09:12:27.749Z,18.55
2022-11-21T09:15:13.540Z,19.50
2022-11-21T09:18:00.507Z,21.40
2022-11-21T09:20:27.604Z,20.48
2022-11-21T09:22:54.498Z,21.40
2022-11-21T09:25:21.527Z,23.77
2022-11-21T09:27:48.240Z,21.08
2022-11-21T09:30:16.108Z,26.05
2022-11-21T09:32:42.854Z,21.48
2022-11-21T09:35:09.898Z,20.73
2022-11-21T09:37:40.406Z,20.30
2022-11-21T09:40:10.539Z,20.67
2022-11-21T09:43:06.367Z,21.30
2022-11-21T09:45:37.341Z,21.50
2022-11-21T09:48:11.690Z,20.35
2022-11-21T09:50:50.725Z,22.77
2022-11-21T09:53:37.806Z,21.90
2022-11-21T09:56:07.075Z,22.15
2022-11-21T09:58:49.002Z,21.50
2022-11-21T10:01:17.510Z,21.05
2022-11-21T10:03:47.441Z,20.70
2022-11-21T10:06:21.794Z,22.20
2022-11-21T10:09:03.746Z,21.42
2022-11-21T10:12:00.909Z,22.38
2022-11-21T10:15:01.997Z,19.80
2022-11-21T10:17:56.607Z,21.30
2022-11-21T10:21:01.017Z,19.35
2022-11-21T10:26:35.910Z,20.23
2022-11-21T10:29:24.049Z,19.58
2022-11-21T10:31:52.450Z,17.98
2022-11-21T10:34:22.855Z,19.75
2022-11-21T10:36:57.784Z,16.58
2022-11-21T10:39:38.600Z,18.23
2022-11-21T10:42:45.158Z,17.08
2022-11-21T10:45:17.343Z,18.05
2022-11-21T10:47:46.289Z,14.98
2022-11-21T10:50:31.403Z,16.10
2022-11-21T10:53:36.497Z,17.83
2022-11-21T10:56:12.241Z,16.98
2022-11-21T10:58:46.258Z,18.75
2022-11-21T11:01:31.341Z,16.95
2022-11-21T11:07:00.647Z,17.02
2022-11-21T11:09:31.691Z,18.42
2022-11-21T11:12:49.130Z,15.88
2022-11-21T11:15:24.858Z,16.42
2022-11-21T11:17:57.741Z,16.75
2022-11-21T11:20:32.809Z,15.88
2022-11-21T11:22:59.854Z,17.38
2022-11-21T11:25:26.806Z,16.33
2022-11-21T11:27:53.897Z,16.58
2022-11-21T11:30:21.394Z,18.60
2022-11-21T11:32:48.443Z,16.92
2022-11-21T11:35:22.167Z,15.05
2022-11-21T11:38:01.387Z,17.30
2022-11-21T11:40:42.472Z,16.55
2022-11-21T11:43:40.533Z,16.92
2022-11-21T11:46:48.027Z,17.35
2022-11-21T11:49:53.020Z,16.20
2022-11-21T11:54:58.792Z,15.13
2022-11-21T11:57:30.245Z,16.73
2022-11-21T12:00:08.037Z,17.92
2022-11-21T12:03:06.618Z,16.55
2022-11-21T12:05:34.690Z,17.20
2022-11-21T12:08:41.518Z,17.13
2022-11-21T12:11:52.405Z,18.30
2022-11-21T12:14:55.969Z,18.08
2022-11-21T12:17:33.662Z,18.83
2022-11-21T12:20:05.338Z,19.50
2022-11-21T12:22:32.432Z,18.67
2022-11-21T12:24:59.159Z,19.92
2022-11-21T12:27:31.923Z,18.15
2022-11-21T12:30:20.521Z,18.58
2022-11-21T12:33:09.561Z,19.95
2022-11-21T12:35:48.333Z,19.92
2022-11-21T12:38:46.910Z,19.38
2022-11-21T12:41:51.034Z,12.38
2022-11-21T12:44:33.070Z,19.05
2022-11-21T12:47:53.652Z,17.40
2022-11-21T12:50:48.404Z,21.55
2022-11-21T12:56:18.482Z,19.35
2022-11-21T12:58:50.620Z,21.38
2022-11-21T13:01:30.718Z,22.63
2022-11-21T13:04:01.974Z,22.20
2022-11-21T13:06:40.387Z,23.42
2022-11-21T13:09:13.078Z,13.70
2022-11-21T13:12:09.936Z,21.73
2022-11-21T13:15:00.625Z,18.20
2022-11-21T13:17:49.563Z,19.83
2022-11-21T13:20:24.347Z,22.45
2022-11-21T13:22:56.435Z,21.33
2022-11-21T13:25:32.292Z,21.90
2022-11-21T13:28:12.044Z,21.05
2022-11-21T13:30:55.057Z,19.45
2022-11-21T13:33:37.418Z,13.10
2022-11-21T13:36:10.915Z,16.77
2022-11-21T13:41:53.029Z,14.77
2022-11-21T13:44:33.036Z,8.35
2022-11-21T13:47:14.762Z,12.85
2022-11-21T13:49:44.806Z,12.30
2022-11-21T13:52:20.273Z,13.77
2022-11-21T13:55:07.206Z,10.50
2022-11-21T13:58:11.618Z,7.38
2022-11-21T14:03:28.383Z,10.95
2022-11-21T14:06:07.473Z,12.10
2022-11-21T14:08:34.748Z,13.70
2022-11-21T14:11:36.670Z,11.95
2022-11-21T14:14:03.425Z,11.00
2022-11-21T14:16:41.344Z,10.95
2022-11-21T14:19:14.946Z,10.27
2022-11-21T14:24:20.048Z,11.55
2022-11-21T14:26:50.987Z,13.00
2022-11-21T14:29:22.728Z,11.00
2022-11-21T14:31:50.467Z,10.82
2022-11-21T14:34:30.694Z,9.70
2022-11-21T14:37:01.056Z,9.25
2022-11-21T14:39:40.938Z,10.98
2022-11-21T14:42:16.425Z,9.75
2022-11-21T14:44:44.081Z,10.18
2022-11-21T14:47:25.943Z,9.50
2022-11-21T14:49:55.425Z,10.60
2022-11-21T14:52:31.681Z,8.98
2022-11-21T14:57:52.745Z,9.55
2022-11-21T15:03:22.471Z,10.55
2022-11-21T15:06:08.301Z,10.60
2022-11-21T15:09:18.379Z,8.88
2022-11-21T15:11:33.380Z,9.90
2022-11-21T15:14:16.385Z,9.45
2022-11-21T15:16:47.875Z,10.57
2022-11-21T15:19:24.648Z,9.40
2022-11-21T15:21:54.258Z,7.18
2022-11-21T15:24:30.403Z,9.50
2022-11-21T15:26:58.565Z,10.27
2022-11-21T15:29:25.623Z,10.00
2022-11-21T15:32:14.089Z,9.02
2022-11-21T15:34:43.115Z,8.27
2022-11-21T15:37:17.140Z,9.52
2022-11-21T15:39:50.189Z,8.43
2022-11-21T15:42:32.060Z,10.82
2022-11-21T15:45:19.741Z,9.75
2022-11-21T15:47:47.527Z,8.25
2022-11-21T15:50:15.292Z,9.02
2022-11-21T15:52:49.815Z,8.77
2022-11-21T15:55:25.821Z,9.10
2022-11-21T15:57:52.621Z,9.30
2022-11-21T16:00:19.707Z,9.52
2022-11-21T16:02:47.345Z,8.90
2022-11-21T16:05:15.913Z,7.13
2022-11-21T16:07:42.927Z,10.20
2022-11-21T16:10:18.328Z,9.30
2022-11-21T16:12:48.516Z,10.32
2022-11-21T16:15:15.573Z,11.15
2022-11-21T16:17:42.296Z,9.23
2022-11-21T16:20:09.580Z,9.48
2022-11-21T16:22:36.364Z,9.85
2022-11-21T16:25:03.614Z,9.75
2022-11-21T16:27:32.492Z,10.52
2022-11-21T16:29:59.582Z,6.95
2022-11-21T16:32:26.625Z,7.18
2022-11-21T16:34:54.754Z,8.52
2022-11-21T16:37:21.508Z,10.35
2022-11-21T16:39:52.070Z,10.38
2022-11-21T16:42:19.692Z,10.07
2022-11-21T16:44:48.143Z,9.85
2022-11-21T16:47:15.280Z,4.70
2022-11-21T16:49:48.437Z,9.85
2022-11-21T16:52:16.226Z,10.25
2022-11-21T16:54:43.288Z,6.88
2022-11-21T16:57:10.086Z,10.57
2022-11-21T16:59:37.323Z,9.82
2022-11-21T17:02:04.716Z,4.93
2022-11-21T17:04:32.115Z,10.88
2022-11-21T17:07:00.806Z,9.68
2022-11-21T17:09:27.926Z,6.68
2022-11-21T17:11:57.620Z,11.45
2022-11-21T17:14:24.755Z,9.63
2022-11-21T17:16:51.626Z,9.38
2022-11-21T17:19:18.941Z,12.00
2022-11-21T17:21:45.679Z,10.15
2022-11-21T17:24:13.560Z,11.90
2022-11-21T17:26:40.388Z,11.00
2022-11-21T17:29:07.770Z,10.30
2022-11-21T17:31:34.542Z,10.48
2022-11-21T17:34:01.886Z,10.55
2022-11-21T17:36:30.395Z,11.20
2022-11-21T17:38:57.697Z,11.48
2022-11-21T17:41:25.615Z,11.93
2022-11-21T17:43:57.461Z,8.10
2022-11-21T17:46:25.614Z,11.88
2022-11-21T17:48:57.316Z,10.60
2022-11-21T17:51:30.151Z,12.70
2022-11-21T17:53:57.876Z,12.45
2022-11-21T17:56:26.817Z,14.15
2022-11-21T17:58:53.941Z,12.68
2022-11-21T18:01:21.139Z,11.52
2022-11-21T18:04:13.578Z,13.10
2022-11-21T18:06:41.747Z,13.33
2022-11-21T18:09:11.271Z,14.35
2022-11-21T18:11:40.602Z,13.57
2022-11-21T18:14:10.255Z,11.93
2022-11-21T18:16:39.028Z,13.43
2022-11-21T18:19:06.472Z,12.45
2022-11-21T18:21:38.171Z,13.23
2022-11-21T18:24:05.477Z,13.88
2022-11-21T18:26:34.526Z,13.85
2022-11-21T18:31:49.530Z,12.57
2022-11-21T18:34:16.610Z,13.93
2022-11-21T18:36:43.434Z,13.02
2022-11-21T18:39:14.518Z,12.70
2022-11-21T18:41:42.812Z,12.63
2022-11-21T18:44:11.483Z,15.23
2022-11-21T18:46:40.392Z,14.48
2022-11-21T18:49:08.424Z,14.23
2022-11-21T18:51:36.480Z,12.73
2022-11-21T18:54:08.683Z,13.45
2022-11-21T18:56:37.481Z,14.00
2022-11-21T18:59:06.024Z,13.85
2022-11-21T19:01:34.677Z,14.15
2022-11-21T19:04:04.922Z,13.63
2022-11-21T19:06:32.141Z,14.20
2022-11-21T19:08:59.400Z,14.82
2022-11-21T19:11:28.579Z,14.75
2022-11-21T19:13:56.607Z,14.30
2022-11-21T19:16:26.339Z,34.97
2022-11-21T19:21:42.017Z,23.20
2022-11-21T19:24:13.831Z,18.27
2022-11-21T19:26:41.479Z,16.65
2022-11-21T19:29:09.188Z,13.82
2022-11-21T19:31:41.057Z,14.63
2022-11-21T19:34:16.001Z,15.60
2022-11-21T19:36:43.393Z,17.10
2022-11-21T19:39:11.121Z,13.98
2022-11-21T19:41:38.008Z,16.55
2022-11-21T19:44:05.268Z,13.48
2022-11-21T19:46:38.142Z,14.05
2022-11-21T19:49:06.566Z,13.15
2022-11-21T19:51:36.582Z,12.32
2022-11-21T19:54:05.402Z,14.13
2022-11-21T19:56:32.871Z,14.07
2022-11-21T19:58:59.907Z,14.38
2022-11-21T20:01:31.664Z,13.07
2022-11-21T20:04:00.756Z,15.38
2022-11-21T20:06:33.363Z,12.75
2022-11-21T20:09:06.975Z,13.53
2022-11-21T20:11:34.747Z,13.52
2022-11-21T20:14:03.854Z,14.35
2022-11-21T20:16:41.902Z,13.75
2022-11-21T20:19:12.238Z,15.18
2022-11-21T20:21:39.394Z,13.10
2022-11-21T20:24:06.822Z,14.35
2022-11-21T20:26:34.581Z,15.73
2022-11-21T20:29:02.646Z,15.48
2022-11-21T20:31:34.446Z,15.38
2022-11-21T20:34:06.475Z,13.43
2022-11-21T20:36:38.676Z,13.60
2022-11-21T20:39:08.804Z,14.65
2022-11-21T20:41:36.658Z,15.23
2022-11-21T20:46:57.500Z,16.45
2022-11-21T20:49:24.608Z,16.05
2022-11-21T20:54:38.699Z,16.30
2022-11-21T20:57:09.189Z,18.02
2022-11-21T20:59:40.195Z,17.98
2022-11-21T21:02:11.656Z,15.63
2022-11-21T21:04:38.791Z,16.98
2022-11-21T21:07:05.599Z,16.30
2022-11-21T21:09:32.707Z,17.67
2022-11-21T21:11:59.488Z,16.92
2022-11-21T21:14:26.480Z,12.57
2022-11-21T21:16:53.251Z,15.73
2022-11-21T21:19:20.668Z,16.52
2022-11-21T21:21:47.994Z,16.35
2022-11-21T21:24:15.210Z,15.63
2022-11-21T21:26:45.418Z,15.20
2022-11-21T21:29:17.891Z,14.15
2022-11-21T21:31:50.563Z,15.13
2022-11-21T21:34:22.793Z,10.82
2022-11-21T21:36:52.547Z,14.35
2022-11-21T21:39:19.666Z,14.77
2022-11-21T21:41:49.272Z,15.02
2022-11-21T21:44:16.851Z,13.30
2022-11-21T21:46:43.889Z,16.05
2022-11-21T21:49:10.950Z,16.20
2022-11-21T21:51:38.062Z,15.35
2022-11-21T21:54:05.007Z,14.48
2022-11-21T21:56:32.929Z,15.07
2022-11-21T21:58:59.823Z,16.40
2022-11-21T22:01:29.403Z,15.00
2022-11-21T22:03:58.891Z,17.98
2022-11-21T22:06:28.319Z,17.42
2022-11-21T22:08:56.034Z,18.30
2022-11-21T22:11:25.841Z,19.08
2022-11-21T22:14:02.421Z,17.80
2022-11-21T22:16:30.205Z,17.60
2022-11-21T22:18:57.472Z,18.02
2022-11-21T22:21:28.030Z,16.35
2022-11-21T22:24:24.348Z,17.80
2022-11-21T22:26:43.622Z,14.05
2022-11-21T22:29:10.414Z,17.40
2022-11-21T22:31:37.581Z,17.48
2022-11-21T22:34:04.697Z,18.38
2022-11-21T22:36:31.691Z,15.63
2022-11-21T22:38:58.415Z,17.08
2022-11-21T22:41:27.371Z,16.35
2022-11-21T22:43:59.848Z,15.05
2022-11-21T22:46:28.127Z,15.55
2022-11-21T22:48:58.301Z,15.73
2022-11-21T22:51:31.860Z,15.68
2022-11-21T22:54:01.142Z,14.63
2022-11-21T22:56:28.238Z,16.08
2022-11-21T22:58:56.064Z,10.05
2022-11-21T23:01:25.321Z,13.95
2022-11-21T23:03:52.986Z,15.68
2022-11-21T23:06:23.747Z,15.55
2022-11-21T23:08:52.256Z,14.10
2022-11-21T23:11:24.488Z,14.45
2022-11-21T23:13:52.322Z,14.45
2022-11-21T23:16:20.809Z,13.98
2022-11-21T23:18:48.436Z,14.43
2022-11-21T23:21:15.586Z,14.70
2022-11-21T23:23:44.018Z,13.13
2022-11-21T23:26:11.477Z,14.25
2022-11-21T23:28:38.440Z,13.63
2022-11-21T23:31:05.472Z,12.45
2022-11-21T23:33:32.402Z,12.13
2022-11-21T23:35:59.447Z,11.80
2022-11-21T23:38:26.594Z,11.23
2022-11-21T23:40:53.611Z,11.75
2022-11-21T23:43:20.468Z,10.40
2022-11-21T23:45:51.953Z,10.98
2022-11-21T23:48:19.808Z,10.05
2022-11-21T23:50:48.272Z,10.80
2022-11-21T23:53:15.187Z,12.20
2022-11-21T23:55:43.354Z,9.13
2022-11-21T23:58:10.538Z,10.52
